EGNR - Hawarden
Distance from station: E 5mi, 14km
Updated: 08/18/2018 10:50am
NOT Current
Partly Cloudy
Partly Cloudy
 Wind from WSW
Wind: WSW 20 mph , 31 km/h, Gust: 35 mph , 56 km/h
Temperature: 70°F , 21°C
Dew Point: 61°F , 16°C
Humidity: 73%
Barometer: 30.03 inHg , 1017 hPa
Clouds: Partly Cloudy
Visibility: 6 miles , 10 km
Cloud details: Few Clouds 2100 ft
Partly Cloudy 4800 ft
2018/08/18 17:50 EGNR 181750Z 24017G30KT 9999 FEW021 SCT048 21/16 Q1017